sensor_id;sensor_type;location;lat;lon;timestamp;P1;durP1;ratioP1;P2;durP2;ratioP2
9526;SDS011;4802;51.494;6.770;2022-08-21T00:01:58;1.23;;;1.13;;
9526;SDS011;4802;51.494;6.770;2022-08-21T00:04:29;1.80;;;1.70;;
9526;SDS011;4802;51.494;6.770;2022-08-21T00:07:00;1.17;;;1.10;;
9526;SDS011;4802;51.494;6.770;2022-08-21T00:09:29;1.80;;;1.70;;
9526;SDS011;4802;51.494;6.770;2022-08-21T00:11:58;1.40;;;1.30;;
9526;SDS011;4802;51.494;6.770;2022-08-21T00:14:27;3.03;;;1.57;;
9526;SDS011;4802;51.494;6.770;2022-08-21T00:16:59;1.57;;;1.47;;
9526;SDS011;4802;51.494;6.770;2022-08-21T00:19:31;1.30;;;1.27;;
9526;SDS011;4802;51.494;6.770;2022-08-21T00:22:01;1.50;;;1.40;;
9526;SDS011;4802;51.494;6.770;2022-08-21T00:24:30;1.77;;;1.67;;
9526;SDS011;4802;51.494;6.770;2022-08-21T00:26:59;1.93;;;1.77;;
9526;SDS011;4802;51.494;6.770;2022-08-21T00:29:28;1.03;;;1.03;;
9526;SDS011;4802;51.494;6.770;2022-08-21T00:31:58;1.53;;;1.53;;
9526;SDS011;4802;51.494;6.770;2022-08-21T00:34:27;1.60;;;1.50;;
9526;SDS011;4802;51.494;6.770;2022-08-21T00:36:58;1.60;;;1.50;;
9526;SDS011;4802;51.494;6.770;2022-08-21T00:39:27;1.93;;;1.80;;
9526;SDS011;4802;51.494;6.770;2022-08-21T00:41:56;1.23;;;1.20;;
9526;SDS011;4802;51.494;6.770;2022-08-21T00:44:25;1.60;;;1.60;;
9526;SDS011;4802;51.494;6.770;2022-08-21T00:46:54;7.27;;;4.10;;
9526;SDS011;4802;51.494;6.770;2022-08-21T00:49:23;2.40;;;1.83;;
9526;SDS011;4802;51.494;6.770;2022-08-21T00:51:56;2.30;;;1.40;;
9526;SDS011;4802;51.494;6.770;2022-08-21T00:54:28;2.10;;;2.00;;
9526;SDS011;4802;51.494;6.770;2022-08-21T00:57:07;2.07;;;1.70;;
9526;SDS011;4802;51.494;6.770;2022-08-21T00:59:44;1.90;;;1.23;;
9526;SDS011;4802;51.494;6.770;2022-08-21T01:02:16;3.47;;;1.60;;
9526;SDS011;4802;51.494;6.770;2022-08-21T01:04:47;1.93;;;1.83;;
9526;SDS011;4802;51.494;6.770;2022-08-21T01:07:18;3.10;;;2.27;;
9526;SDS011;4802;51.494;6.770;2022-08-21T01:09:53;3.03;;;2.47;;
9526;SDS011;4802;51.494;6.770;2022-08-21T01:12:22;3.23;;;1.50;;
9526;SDS011;4802;51.494;6.770;2022-08-21T01:14:51;2.73;;;2.00;;
9526;SDS011;4802;51.494;6.770;2022-08-21T01:17:21;3.30;;;2.10;;
9526;SDS011;4802;51.494;6.770;2022-08-21T01:19:57;3.13;;;1.63;;
9526;SDS011;4802;51.494;6.770;2022-08-21T01:22:27;1.93;;;1.83;;
9526;SDS011;4802;51.494;6.770;2022-08-21T01:25:00;2.13;;;1.90;;
9526;SDS011;4802;51.494;6.770;2022-08-21T01:27:35;2.30;;;2.10;;
9526;SDS011;4802;51.494;6.770;2022-08-21T01:30:13;2.17;;;2.00;;
9526;SDS011;4802;51.494;6.770;2022-08-21T01:32:48;3.23;;;2.50;;
9526;SDS011;4802;51.494;6.770;2022-08-21T01:35:30;5.60;;;2.30;;
9526;SDS011;4802;51.494;6.770;2022-08-21T01:38:01;2.47;;;2.30;;
9526;SDS011;4802;51.494;6.770;2022-08-21T01:40:50;2.07;;;1.90;;
9526;SDS011;4802;51.494;6.770;2022-08-21T01:43:25;2.93;;;2.70;;
9526;SDS011;4802;51.494;6.770;2022-08-21T01:46:05;2.70;;;2.50;;
9526;SDS011;4802;51.494;6.770;2022-08-21T01:48:34;2.47;;;2.27;;
9526;SDS011;4802;51.494;6.770;2022-08-21T01:51:04;2.50;;;2.27;;
9526;SDS011;4802;51.494;6.770;2022-08-21T01:53:37;1.73;;;1.63;;
9526;SDS011;4802;51.494;6.770;2022-08-21T01:56:07;2.57;;;2.37;;
9526;SDS011;4802;51.494;6.770;2022-08-21T01:58:42;5.20;;;1.50;;
9526;SDS011;4802;51.494;6.770;2022-08-21T02:01:14;2.40;;;2.20;;
9526;SDS011;4802;51.494;6.770;2022-08-21T02:03:45;2.97;;;2.17;;
9526;SDS011;4802;51.494;6.770;2022-08-21T02:06:15;5.00;;;2.20;;
9526;SDS011;4802;51.494;6.770;2022-08-21T02:08:46;3.73;;;2.47;;
9526;SDS011;4802;51.494;6.770;2022-08-21T02:11:17;5.00;;;2.83;;
9526;SDS011;4802;51.494;6.770;2022-08-21T02:13:47;1.47;;;1.30;;
9526;SDS011;4802;51.494;6.770;2022-08-21T02:16:16;4.17;;;2.60;;
9526;SDS011;4802;51.494;6.770;2022-08-21T02:18:45;2.37;;;2.17;;
9526;SDS011;4802;51.494;6.770;2022-08-21T02:21:14;3.80;;;2.50;;
9526;SDS011;4802;51.494;6.770;2022-08-21T02:23:43;2.43;;;1.93;;
9526;SDS011;4802;51.494;6.770;2022-08-21T02:26:14;7.80;;;2.13;;
9526;SDS011;4802;51.494;6.770;2022-08-21T02:28:44;3.40;;;2.07;;
9526;SDS011;4802;51.494;6.770;2022-08-21T02:31:15;1.80;;;1.70;;
9526;SDS011;4802;51.494;6.770;2022-08-21T02:33:46;1.63;;;1.53;;
9526;SDS011;4802;51.494;6.770;2022-08-21T02:36:15;3.33;;;2.00;;
9526;SDS011;4802;51.494;6.770;2022-08-21T02:38:46;2.00;;;1.80;;
9526;SDS011;4802;51.494;6.770;2022-08-21T02:41:17;4.03;;;2.80;;
9526;SDS011;4802;51.494;6.770;2022-08-21T02:43:47;2.87;;;2.10;;
9526;SDS011;4802;51.494;6.770;2022-08-21T02:46:18;2.00;;;1.90;;
9526;SDS011;4802;51.494;6.770;2022-08-21T02:48:48;2.20;;;2.10;;
9526;SDS011;4802;51.494;6.770;2022-08-21T02:51:18;1.70;;;1.60;;
9526;SDS011;4802;51.494;6.770;2022-08-21T02:53:50;2.83;;;2.00;;
9526;SDS011;4802;51.494;6.770;2022-08-21T02:56:20;3.67;;;3.37;;
9526;SDS011;4802;51.494;6.770;2022-08-21T02:58:50;2.23;;;2.03;;
9526;SDS011;4802;51.494;6.770;2022-08-21T03:01:20;2.07;;;1.97;;
9526;SDS011;4802;51.494;6.770;2022-08-21T03:03:50;2.80;;;2.13;;
9526;SDS011;4802;51.494;6.770;2022-08-21T03:06:21;3.60;;;2.20;;
9526;SDS011;4802;51.494;6.770;2022-08-21T03:08:52;1.97;;;1.87;;
9526;SDS011;4802;51.494;6.770;2022-08-21T03:11:21;1.53;;;1.43;;
9526;SDS011;4802;51.494;6.770;2022-08-21T03:14:04;5.13;;;3.00;;
9526;SDS011;4802;51.494;6.770;2022-08-21T03:16:34;2.90;;;2.70;;
9526;SDS011;4802;51.494;6.770;2022-08-21T03:19:05;2.70;;;1.93;;
9526;SDS011;4802;51.494;6.770;2022-08-21T03:21:45;2.83;;;2.10;;
9526;SDS011;4802;51.494;6.770;2022-08-21T03:24:16;3.40;;;3.10;;
9526;SDS011;4802;51.494;6.770;2022-08-21T03:26:49;4.47;;;3.20;;
9526;SDS011;4802;51.494;6.770;2022-08-21T03:29:18;2.60;;;2.40;;
9526;SDS011;4802;51.494;6.770;2022-08-21T03:31:47;4.90;;;2.03;;
9526;SDS011;4802;51.494;6.770;2022-08-21T03:34:16;1.93;;;1.83;;
9526;SDS011;4802;51.494;6.770;2022-08-21T03:36:47;4.73;;;1.97;;
9526;SDS011;4802;51.494;6.770;2022-08-21T03:39:18;2.37;;;1.97;;
9526;SDS011;4802;51.494;6.770;2022-08-21T03:41:48;5.13;;;2.80;;
9526;SDS011;4802;51.494;6.770;2022-08-21T03:44:17;2.70;;;2.50;;
9526;SDS011;4802;51.494;6.770;2022-08-21T03:46:46;9.73;;;3.03;;
9526;SDS011;4802;51.494;6.770;2022-08-21T03:49:15;5.27;;;2.57;;
9526;SDS011;4802;51.494;6.770;2022-08-21T03:51:45;3.30;;;2.13;;
9526;SDS011;4802;51.494;6.770;2022-08-21T03:54:26;3.53;;;3.23;;
9526;SDS011;4802;51.494;6.770;2022-08-21T03:56:55;3.67;;;2.13;;
9526;SDS011;4802;51.494;6.770;2022-08-21T03:59:24;3.70;;;3.00;;
9526;SDS011;4802;51.494;6.770;2022-08-21T04:01:53;3.03;;;2.20;;
9526;SDS011;4802;51.494;6.770;2022-08-21T04:04:23;2.33;;;2.13;;
9526;SDS011;4802;51.494;6.770;2022-08-21T04:06:58;1.87;;;1.80;;
9526;SDS011;4802;51.494;6.770;2022-08-21T04:09:29;2.83;;;2.63;;
9526;SDS011;4802;51.494;6.770;2022-08-21T04:12:00;2.77;;;1.93;;
9526;SDS011;4802;51.494;6.770;2022-08-21T04:14:30;3.77;;;3.47;;
9526;SDS011;4802;51.494;6.770;2022-08-21T04:16:59;2.53;;;2.23;;
9526;SDS011;4802;51.494;6.770;2022-08-21T04:19:28;2.00;;;1.90;;
9526;SDS011;4802;51.494;6.770;2022-08-21T04:21:58;1.90;;;1.80;;
9526;SDS011;4802;51.494;6.770;2022-08-21T04:24:29;3.23;;;2.90;;
9526;SDS011;4802;51.494;6.770;2022-08-21T04:26:58;2.17;;;1.90;;
9526;SDS011;4802;51.494;6.770;2022-08-21T04:29:27;1.53;;;1.50;;
9526;SDS011;4802;51.494;6.770;2022-08-21T04:31:56;2.00;;;1.90;;
9526;SDS011;4802;51.494;6.770;2022-08-21T04:34:25;5.43;;;2.73;;
9526;SDS011;4802;51.494;6.770;2022-08-21T04:36:55;2.43;;;2.00;;
9526;SDS011;4802;51.494;6.770;2022-08-21T04:39:26;4.20;;;3.80;;
9526;SDS011;4802;51.494;6.770;2022-08-21T04:41:57;4.60;;;2.93;;
9526;SDS011;4802;51.494;6.770;2022-08-21T04:44:26;2.93;;;2.83;;
9526;SDS011;4802;51.494;6.770;2022-08-21T04:46:55;2.83;;;2.57;;
9526;SDS011;4802;51.494;6.770;2022-08-21T04:49:24;2.53;;;2.33;;
9526;SDS011;4802;51.494;6.770;2022-08-21T04:51:53;3.50;;;3.30;;
9526;SDS011;4802;51.494;6.770;2022-08-21T04:54:22;2.97;;;2.77;;
9526;SDS011;4802;51.494;6.770;2022-08-21T04:56:52;2.30;;;2.20;;
9526;SDS011;4802;51.494;6.770;2022-08-21T04:59:26;4.57;;;2.80;;
9526;SDS011;4802;51.494;6.770;2022-08-21T05:01:59;2.37;;;2.23;;
9526;SDS011;4802;51.494;6.770;2022-08-21T05:04:30;4.67;;;2.90;;
9526;SDS011;4802;51.494;6.770;2022-08-21T05:07:04;3.27;;;2.97;;
9526;SDS011;4802;51.494;6.770;2022-08-21T05:09:36;3.67;;;3.37;;
9526;SDS011;4802;51.494;6.770;2022-08-21T05:12:06;2.47;;;2.27;;
9526;SDS011;4802;51.494;6.770;2022-08-21T05:14:37;3.70;;;2.93;;
9526;SDS011;4802;51.494;6.770;2022-08-21T05:17:11;6.13;;;2.80;;
9526;SDS011;4802;51.494;6.770;2022-08-21T05:19:40;3.50;;;3.13;;
9526;SDS011;4802;51.494;6.770;2022-08-21T05:22:10;3.23;;;3.03;;
9526;SDS011;4802;51.494;6.770;2022-08-21T05:24:43;3.00;;;2.77;;
9526;SDS011;4802;51.494;6.770;2022-08-21T05:27:12;4.87;;;3.67;;
9526;SDS011;4802;51.494;6.770;2022-08-21T05:29:44;3.03;;;2.70;;
9526;SDS011;4802;51.494;6.770;2022-08-21T05:32:15;2.77;;;2.23;;
9526;SDS011;4802;51.494;6.770;2022-08-21T05:34:44;2.67;;;2.47;;
9526;SDS011;4802;51.494;6.770;2022-08-21T05:37:13;2.63;;;2.37;;
9526;SDS011;4802;51.494;6.770;2022-08-21T05:39:43;2.10;;;1.90;;
9526;SDS011;4802;51.494;6.770;2022-08-21T05:42:32;5.90;;;2.53;;
9526;SDS011;4802;51.494;6.770;2022-08-21T05:45:02;8.80;;;2.73;;
9526;SDS011;4802;51.494;6.770;2022-08-21T05:47:32;3.13;;;2.83;;
9526;SDS011;4802;51.494;6.770;2022-08-21T05:50:01;2.40;;;2.20;;
9526;SDS011;4802;51.494;6.770;2022-08-21T05:52:31;2.47;;;2.37;;
9526;SDS011;4802;51.494;6.770;2022-08-21T05:55:00;2.53;;;2.43;;
9526;SDS011;4802;51.494;6.770;2022-08-21T05:57:29;2.37;;;1.93;;
9526;SDS011;4802;51.494;6.770;2022-08-21T05:59:57;3.03;;;2.47;;
9526;SDS011;4802;51.494;6.770;2022-08-21T06:02:28;3.43;;;3.00;;
9526;SDS011;4802;51.494;6.770;2022-08-21T06:04:57;3.37;;;2.10;;
9526;SDS011;4802;51.494;6.770;2022-08-21T06:07:26;9.13;;;2.53;;
9526;SDS011;4802;51.494;6.770;2022-08-21T06:09:56;2.67;;;2.47;;
9526;SDS011;4802;51.494;6.770;2022-08-21T06:12:26;2.63;;;2.43;;
9526;SDS011;4802;51.494;6.770;2022-08-21T06:14:55;8.73;;;2.30;;
9526;SDS011;4802;51.494;6.770;2022-08-21T06:17:24;2.60;;;2.20;;
9526;SDS011;4802;51.494;6.770;2022-08-21T06:19:55;3.47;;;2.23;;
9526;SDS011;4802;51.494;6.770;2022-08-21T06:22:25;1.47;;;1.37;;
9526;SDS011;4802;51.494;6.770;2022-08-21T06:24:55;4.83;;;2.10;;
9526;SDS011;4802;51.494;6.770;2022-08-21T06:27:24;1.67;;;1.57;;
9526;SDS011;4802;51.494;6.770;2022-08-21T06:29:53;3.03;;;2.33;;
9526;SDS011;4802;51.494;6.770;2022-08-21T06:32:31;1.73;;;1.40;;
9526;SDS011;4802;51.494;6.770;2022-08-21T06:35:02;6.63;;;1.60;;
9526;SDS011;4802;51.494;6.770;2022-08-21T06:37:33;1.33;;;1.13;;
9526;SDS011;4802;51.494;6.770;2022-08-21T06:40:03;2.00;;;1.80;;
9526;SDS011;4802;51.494;6.770;2022-08-21T06:42:38;1.33;;;1.20;;
9526;SDS011;4802;51.494;6.770;2022-08-21T06:45:09;2.23;;;1.43;;
9526;SDS011;4802;51.494;6.770;2022-08-21T06:47:40;1.80;;;1.70;;
9526;SDS011;4802;51.494;6.770;2022-08-21T06:50:10;1.70;;;1.30;;
9526;SDS011;4802;51.494;6.770;2022-08-21T06:52:39;1.60;;;1.50;;
9526;SDS011;4802;51.494;6.770;2022-08-21T06:55:09;2.50;;;1.87;;
9526;SDS011;4802;51.494;6.770;2022-08-21T06:57:47;2.27;;;1.43;;
9526;SDS011;4802;51.494;6.770;2022-08-21T07:00:19;1.53;;;1.43;;
9526;SDS011;4802;51.494;6.770;2022-08-21T07:02:51;1.13;;;1.13;;
9526;SDS011;4802;51.494;6.770;2022-08-21T07:05:24;1.30;;;1.10;;
9526;SDS011;4802;51.494;6.770;2022-08-21T07:07:54;4.63;;;1.50;;
9526;SDS011;4802;51.494;6.770;2022-08-21T07:10:29;2.53;;;1.50;;
9526;SDS011;4802;51.494;6.770;2022-08-21T07:13:03;1.37;;;1.27;;
9526;SDS011;4802;51.494;6.770;2022-08-21T07:15:33;1.60;;;1.50;;
9526;SDS011;4802;51.494;6.770;2022-08-21T07:18:03;4.37;;;1.90;;
9526;SDS011;4802;51.494;6.770;2022-08-21T07:20:35;2.00;;;1.60;;
9526;SDS011;4802;51.494;6.770;2022-08-21T07:23:05;4.07;;;2.13;;
9526;SDS011;4802;51.494;6.770;2022-08-21T07:25:39;0.90;;;0.87;;
9526;SDS011;4802;51.494;6.770;2022-08-21T07:28:09;1.33;;;1.23;;
9526;SDS011;4802;51.494;6.770;2022-08-21T07:30:40;1.00;;;1.00;;
9526;SDS011;4802;51.494;6.770;2022-08-21T07:33:12;0.80;;;0.80;;
9526;SDS011;4802;51.494;6.770;2022-08-21T07:35:43;0.77;;;0.77;;
9526;SDS011;4802;51.494;6.770;2022-08-21T07:38:12;3.17;;;0.83;;
9526;SDS011;4802;51.494;6.770;2022-08-21T07:40:41;2.13;;;0.57;;
9526;SDS011;4802;51.494;6.770;2022-08-21T07:43:10;2.87;;;0.90;;
9526;SDS011;4802;51.494;6.770;2022-08-21T07:45:39;0.80;;;0.80;;
9526;SDS011;4802;51.494;6.770;2022-08-21T07:48:08;0.57;;;0.57;;
9526;SDS011;4802;51.494;6.770;2022-08-21T07:50:38;1.80;;;0.60;;
9526;SDS011;4802;51.494;6.770;2022-08-21T07:53:10;1.33;;;0.80;;
9526;SDS011;4802;51.494;6.770;2022-08-21T07:55:40;2.00;;;0.90;;
9526;SDS011;4802;51.494;6.770;2022-08-21T07:58:09;0.70;;;0.50;;
9526;SDS011;4802;51.494;6.770;2022-08-21T08:00:39;0.70;;;0.70;;
9526;SDS011;4802;51.494;6.770;2022-08-21T08:03:09;3.63;;;1.27;;
9526;SDS011;4802;51.494;6.770;2022-08-21T08:05:45;5.70;;;1.20;;
9526;SDS011;4802;51.494;6.770;2022-08-21T08:08:17;0.60;;;0.60;;
9526;SDS011;4802;51.494;6.770;2022-08-21T08:10:47;1.53;;;0.70;;
9526;SDS011;4802;51.494;6.770;2022-08-21T08:13:18;1.10;;;0.93;;
9526;SDS011;4802;51.494;6.770;2022-08-21T08:15:47;0.40;;;0.33;;
9526;SDS011;4802;51.494;6.770;2022-08-21T08:18:15;0.60;;;0.60;;
9526;SDS011;4802;51.494;6.770;2022-08-21T08:20:45;0.60;;;0.40;;
9526;SDS011;4802;51.494;6.770;2022-08-21T08:23:17;0.60;;;0.50;;
9526;SDS011;4802;51.494;6.770;2022-08-21T08:25:46;0.70;;;0.70;;
9526;SDS011;4802;51.494;6.770;2022-08-21T08:28:17;0.50;;;0.50;;
9526;SDS011;4802;51.494;6.770;2022-08-21T08:30:46;0.40;;;0.40;;
9526;SDS011;4802;51.494;6.770;2022-08-21T08:33:16;0.90;;;0.70;;
9526;SDS011;4802;51.494;6.770;2022-08-21T08:35:52;1.47;;;0.60;;
9526;SDS011;4802;51.494;6.770;2022-08-21T08:38:29;3.33;;;0.60;;
9526;SDS011;4802;51.494;6.770;2022-08-21T08:41:02;1.33;;;0.90;;
9526;SDS011;4802;51.494;6.770;2022-08-21T08:43:43;0.60;;;0.47;;
9526;SDS011;4802;51.494;6.770;2022-08-21T08:46:20;1.53;;;0.40;;
9526;SDS011;4802;51.494;6.770;2022-08-21T08:48:58;0.97;;;0.87;;
9526;SDS011;4802;51.494;6.770;2022-08-21T08:51:37;1.33;;;0.73;;
9526;SDS011;4802;51.494;6.770;2022-08-21T08:54:28;0.67;;;0.67;;
9526;SDS011;4802;51.494;6.770;2022-08-21T08:57:09;0.80;;;0.80;;
9526;SDS011;4802;51.494;6.770;2022-08-21T09:00:23;0.40;;;0.40;;
9526;SDS011;4802;51.494;6.770;2022-08-21T09:02:55;1.80;;;1.43;;
9526;SDS011;4802;51.494;6.770;2022-08-21T09:05:30;0.50;;;0.50;;
9526;SDS011;4802;51.494;6.770;2022-08-21T09:08:15;3.60;;;0.50;;
9526;SDS011;4802;51.494;6.770;2022-08-21T09:11:08;1.33;;;0.53;;
9526;SDS011;4802;51.494;6.770;2022-08-21T09:13:44;0.40;;;0.30;;
9526;SDS011;4802;51.494;6.770;2022-08-21T09:16:35;0.70;;;0.40;;
9526;SDS011;4802;51.494;6.770;2022-08-21T09:19:11;0.40;;;0.30;;
9526;SDS011;4802;51.494;6.770;2022-08-21T09:21:57;0.80;;;0.80;;
9526;SDS011;4802;51.494;6.770;2022-08-21T09:24:39;1.60;;;0.93;;
9526;SDS011;4802;51.494;6.770;2022-08-21T09:27:19;1.37;;;0.70;;
9526;SDS011;4802;51.494;6.770;2022-08-21T09:29:52;1.40;;;0.60;;
9526;SDS011;4802;51.494;6.770;2022-08-21T09:32:26;0.60;;;0.60;;
9526;SDS011;4802;51.494;6.770;2022-08-21T09:35:04;1.23;;;0.90;;
9526;SDS011;4802;51.494;6.770;2022-08-21T09:37:45;0.50;;;0.50;;
9526;SDS011;4802;51.494;6.770;2022-08-21T09:40:27;2.80;;;1.13;;
9526;SDS011;4802;51.494;6.770;2022-08-21T09:43:06;2.30;;;0.70;;
9526;SDS011;4802;51.494;6.770;2022-08-21T09:45:49;1.00;;;0.60;;
9526;SDS011;4802;51.494;6.770;2022-08-21T09:48:44;1.70;;;1.60;;
9526;SDS011;4802;51.494;6.770;2022-08-21T09:51:19;0.70;;;0.60;;
9526;SDS011;4802;51.494;6.770;2022-08-21T09:53:53;1.70;;;1.13;;
9526;SDS011;4802;51.494;6.770;2022-08-21T09:56:27;1.33;;;0.60;;
9526;SDS011;4802;51.494;6.770;2022-08-21T09:59:30;0.53;;;0.53;;
9526;SDS011;4802;51.494;6.770;2022-08-21T10:02:21;0.60;;;0.60;;
9526;SDS011;4802;51.494;6.770;2022-08-21T10:04:59;0.50;;;0.50;;
9526;SDS011;4802;51.494;6.770;2022-08-21T10:07:32;1.10;;;1.10;;
9526;SDS011;4802;51.494;6.770;2022-08-21T10:10:05;1.90;;;0.47;;
9526;SDS011;4802;51.494;6.770;2022-08-21T10:12:41;0.90;;;0.90;;
9526;SDS011;4802;51.494;6.770;2022-08-21T10:15:22;0.73;;;0.50;;
9526;SDS011;4802;51.494;6.770;2022-08-21T10:17:58;0.53;;;0.53;;
9526;SDS011;4802;51.494;6.770;2022-08-21T10:20:37;2.77;;;0.70;;
9526;SDS011;4802;51.494;6.770;2022-08-21T10:23:27;1.13;;;0.57;;
9526;SDS011;4802;51.494;6.770;2022-08-21T10:26:08;0.60;;;0.50;;
9526;SDS011;4802;51.494;6.770;2022-08-21T10:29:00;0.40;;;0.40;;
9526;SDS011;4802;51.494;6.770;2022-08-21T10:38:35;2.43;;;0.70;;
9526;SDS011;4802;51.494;6.770;2022-08-21T10:42:14;0.50;;;0.50;;
9526;SDS011;4802;51.494;6.770;2022-08-21T10:45:22;1.00;;;0.50;;
9526;SDS011;4802;51.494;6.770;2022-08-21T10:48:14;0.60;;;0.50;;
9526;SDS011;4802;51.494;6.770;2022-08-21T10:50:59;0.60;;;0.53;;
9526;SDS011;4802;51.494;6.770;2022-08-21T10:53:56;0.93;;;0.47;;
9526;SDS011;4802;51.494;6.770;2022-08-21T10:56:48;1.77;;;0.60;;
9526;SDS011;4802;51.494;6.770;2022-08-21T10:59:32;0.50;;;0.40;;
9526;SDS011;4802;51.494;6.770;2022-08-21T11:02:17;0.70;;;0.70;;
9526;SDS011;4802;51.494;6.770;2022-08-21T11:04:52;1.03;;;0.40;;
9526;SDS011;4802;51.494;6.770;2022-08-21T11:07:28;2.03;;;0.90;;
9526;SDS011;4802;51.494;6.770;2022-08-21T11:10:03;1.00;;;0.97;;
9526;SDS011;4802;51.494;6.770;2022-08-21T11:12:54;1.53;;;1.43;;
9526;SDS011;4802;51.494;6.770;2022-08-21T11:15:33;2.60;;;0.83;;
9526;SDS011;4802;51.494;6.770;2022-08-21T11:18:21;0.70;;;0.70;;
9526;SDS011;4802;51.494;6.770;2022-08-21T11:20:59;0.60;;;0.60;;
9526;SDS011;4802;51.494;6.770;2022-08-21T11:23:37;1.73;;;0.70;;
9526;SDS011;4802;51.494;6.770;2022-08-21T11:26:10;0.67;;;0.67;;
9526;SDS011;4802;51.494;6.770;2022-08-21T11:28:50;0.40;;;0.40;;
9526;SDS011;4802;51.494;6.770;2022-08-21T11:31:34;1.80;;;0.50;;
9526;SDS011;4802;51.494;6.770;2022-08-21T11:34:18;0.63;;;0.63;;
9526;SDS011;4802;51.494;6.770;2022-08-21T11:37:04;1.43;;;0.70;;
9526;SDS011;4802;51.494;6.770;2022-08-21T11:39:49;0.50;;;0.33;;
9526;SDS011;4802;51.494;6.770;2022-08-21T11:42:29;5.80;;;0.87;;
9526;SDS011;4802;51.494;6.770;2022-08-21T11:45:42;0.77;;;0.77;;
9526;SDS011;4802;51.494;6.770;2022-08-21T11:48:20;0.50;;;0.50;;
9526;SDS011;4802;51.494;6.770;2022-08-21T11:51:19;0.80;;;0.40;;
9526;SDS011;4802;51.494;6.770;2022-08-21T11:54:02;0.50;;;0.50;;
9526;SDS011;4802;51.494;6.770;2022-08-21T11:56:50;1.10;;;0.60;;
9526;SDS011;4802;51.494;6.770;2022-08-21T11:59:32;0.50;;;0.50;;
9526;SDS011;4802;51.494;6.770;2022-08-21T12:02:14;0.50;;;0.40;;
9526;SDS011;4802;51.494;6.770;2022-08-21T12:04:59;0.50;;;0.50;;
9526;SDS011;4802;51.494;6.770;2022-08-21T12:07:39;0.77;;;0.70;;
9526;SDS011;4802;51.494;6.770;2022-08-21T12:10:31;0.40;;;0.40;;
9526;SDS011;4802;51.494;6.770;2022-08-21T12:16:13;0.50;;;0.30;;
9526;SDS011;4802;51.494;6.770;2022-08-21T12:19:01;0.60;;;0.50;;
9526;SDS011;4802;51.494;6.770;2022-08-21T12:21:48;1.07;;;0.70;;
9526;SDS011;4802;51.494;6.770;2022-08-21T12:24:36;0.50;;;0.50;;
9526;SDS011;4802;51.494;6.770;2022-08-21T12:27:14;0.50;;;0.50;;
9526;SDS011;4802;51.494;6.770;2022-08-21T12:30:18;0.80;;;0.50;;
9526;SDS011;4802;51.494;6.770;2022-08-21T12:32:56;0.70;;;0.70;;
9526;SDS011;4802;51.494;6.770;2022-08-21T12:35:31;3.90;;;1.73;;
9526;SDS011;4802;51.494;6.770;2022-08-21T12:38:12;2.93;;;0.90;;
9526;SDS011;4802;51.494;6.770;2022-08-21T12:41:02;1.60;;;0.60;;
9526;SDS011;4802;51.494;6.770;2022-08-21T12:43:45;0.47;;;0.40;;
9526;SDS011;4802;51.494;6.770;2022-08-21T12:46:26;2.20;;;0.60;;
9526;SDS011;4802;51.494;6.770;2022-08-21T12:49:05;1.17;;;0.40;;
9526;SDS011;4802;51.494;6.770;2022-08-21T12:51:47;2.53;;;0.50;;
9526;SDS011;4802;51.494;6.770;2022-08-21T12:54:24;1.30;;;0.50;;
9526;SDS011;4802;51.494;6.770;2022-08-21T12:57:24;1.10;;;1.10;;
9526;SDS011;4802;51.494;6.770;2022-08-21T13:00:12;0.93;;;0.40;;
9526;SDS011;4802;51.494;6.770;2022-08-21T13:03:11;0.50;;;0.40;;
9526;SDS011;4802;51.494;6.770;2022-08-21T13:05:53;0.43;;;0.37;;
9526;SDS011;4802;51.494;6.770;2022-08-21T13:08:29;0.40;;;0.30;;
9526;SDS011;4802;51.494;6.770;2022-08-21T13:11:18;0.80;;;0.80;;
9526;SDS011;4802;51.494;6.770;2022-08-21T13:14:09;0.40;;;0.20;;
9526;SDS011;4802;51.494;6.770;2022-08-21T13:16:53;0.50;;;0.30;;
9526;SDS011;4802;51.494;6.770;2022-08-21T13:22:54;0.40;;;0.30;;
9526;SDS011;4802;51.494;6.770;2022-08-21T13:25:52;0.70;;;0.50;;
9526;SDS011;4802;51.494;6.770;2022-08-21T13:28:45;0.90;;;0.50;;
9526;SDS011;4802;51.494;6.770;2022-08-21T13:31:20;0.60;;;0.60;;
9526;SDS011;4802;51.494;6.770;2022-08-21T13:33:59;1.63;;;0.70;;
9526;SDS011;4802;51.494;6.770;2022-08-21T13:36:32;0.50;;;0.40;;
9526;SDS011;4802;51.494;6.770;2022-08-21T13:39:04;0.80;;;0.80;;
9526;SDS011;4802;51.494;6.770;2022-08-21T13:41:36;1.37;;;1.00;;
9526;SDS011;4802;51.494;6.770;2022-08-21T13:44:14;1.47;;;0.30;;
9526;SDS011;4802;51.494;6.770;2022-08-21T13:46:46;3.90;;;0.47;;
9526;SDS011;4802;51.494;6.770;2022-08-21T13:49:19;0.87;;;0.77;;
9526;SDS011;4802;51.494;6.770;2022-08-21T13:52:16;1.20;;;0.77;;
9526;SDS011;4802;51.494;6.770;2022-08-21T13:54:52;0.80;;;0.40;;
9526;SDS011;4802;51.494;6.770;2022-08-21T13:57:26;0.93;;;0.80;;
9526;SDS011;4802;51.494;6.770;2022-08-21T14:00:10;0.63;;;0.60;;
9526;SDS011;4802;51.494;6.770;2022-08-21T14:02:43;1.57;;;0.77;;
9526;SDS011;4802;51.494;6.770;2022-08-21T14:05:19;0.60;;;0.60;;
9526;SDS011;4802;51.494;6.770;2022-08-21T14:07:56;2.93;;;0.63;;
9526;SDS011;4802;51.494;6.770;2022-08-21T14:10:34;0.60;;;0.60;;
9526;SDS011;4802;51.494;6.770;2022-08-21T14:13:19;0.93;;;0.60;;
9526;SDS011;4802;51.494;6.770;2022-08-21T14:16:08;0.43;;;0.40;;
9526;SDS011;4802;51.494;6.770;2022-08-21T14:18:45;2.83;;;0.53;;
9526;SDS011;4802;51.494;6.770;2022-08-21T14:21:23;1.03;;;0.63;;
9526;SDS011;4802;51.494;6.770;2022-08-21T14:24:01;2.60;;;0.70;;
9526;SDS011;4802;51.494;6.770;2022-08-21T14:26:32;4.00;;;0.70;;
9526;SDS011;4802;51.494;6.770;2022-08-21T14:29:06;1.50;;;1.50;;
9526;SDS011;4802;51.494;6.770;2022-08-21T14:31:36;0.70;;;0.70;;
9526;SDS011;4802;51.494;6.770;2022-08-21T14:34:09;1.33;;;0.90;;
9526;SDS011;4802;51.494;6.770;2022-08-21T14:36:45;1.70;;;0.70;;
9526;SDS011;4802;51.494;6.770;2022-08-21T14:39:17;2.43;;;1.10;;
9526;SDS011;4802;51.494;6.770;2022-08-21T14:41:47;0.80;;;0.80;;
9526;SDS011;4802;51.494;6.770;2022-08-21T14:44:18;2.00;;;0.83;;
9526;SDS011;4802;51.494;6.770;2022-08-21T14:46:48;3.53;;;1.10;;
9526;SDS011;4802;51.494;6.770;2022-08-21T14:49:23;2.40;;;0.90;;
9526;SDS011;4802;51.494;6.770;2022-08-21T14:52:04;0.73;;;0.63;;
9526;SDS011;4802;51.494;6.770;2022-08-21T14:54:50;5.60;;;1.27;;
9526;SDS011;4802;51.494;6.770;2022-08-21T14:57:20;2.70;;;1.00;;
9526;SDS011;4802;51.494;6.770;2022-08-21T14:59:51;1.00;;;0.60;;
9526;SDS011;4802;51.494;6.770;2022-08-21T15:02:27;1.43;;;1.10;;
9526;SDS011;4802;51.494;6.770;2022-08-21T15:05:00;2.07;;;0.80;;
9526;SDS011;4802;51.494;6.770;2022-08-21T15:07:31;1.87;;;1.23;;
9526;SDS011;4802;51.494;6.770;2022-08-21T15:10:08;0.93;;;0.90;;
9526;SDS011;4802;51.494;6.770;2022-08-21T15:12:39;0.73;;;0.73;;
9526;SDS011;4802;51.494;6.770;2022-08-21T15:15:08;0.60;;;0.60;;
9526;SDS011;4802;51.494;6.770;2022-08-21T15:17:43;0.60;;;0.40;;
9526;SDS011;4802;51.494;6.770;2022-08-21T15:20:27;1.83;;;0.80;;
9526;SDS011;4802;51.494;6.770;2022-08-21T15:23:42;0.70;;;0.70;;
9526;SDS011;4802;51.494;6.770;2022-08-21T15:30:00;1.73;;;1.00;;
9526;SDS011;4802;51.494;6.770;2022-08-21T15:32:46;4.30;;;1.20;;
9526;SDS011;4802;51.494;6.770;2022-08-21T15:35:37;0.83;;;0.60;;
9526;SDS011;4802;51.494;6.770;2022-08-21T15:42:20;2.00;;;1.90;;
9526;SDS011;4802;51.494;6.770;2022-08-21T15:45:19;1.33;;;0.87;;
9526;SDS011;4802;51.494;6.770;2022-08-21T15:48:11;2.27;;;2.17;;
9526;SDS011;4802;51.494;6.770;2022-08-21T15:50:59;2.50;;;1.93;;
9526;SDS011;4802;51.494;6.770;2022-08-21T15:53:56;1.70;;;1.60;;
9526;SDS011;4802;51.494;6.770;2022-08-21T15:56:47;1.00;;;1.00;;
9526;SDS011;4802;51.494;6.770;2022-08-21T16:02:49;2.00;;;1.30;;
9526;SDS011;4802;51.494;6.770;2022-08-21T16:05:59;0.80;;;0.80;;
9526;SDS011;4802;51.494;6.770;2022-08-21T16:08:34;3.03;;;1.33;;
9526;SDS011;4802;51.494;6.770;2022-08-21T16:11:13;0.70;;;0.70;;
9526;SDS011;4802;51.494;6.770;2022-08-21T16:13:46;1.33;;;1.10;;
9526;SDS011;4802;51.494;6.770;2022-08-21T16:16:23;0.93;;;0.90;;
9526;SDS011;4802;51.494;6.770;2022-08-21T16:19:08;0.70;;;0.70;;
9526;SDS011;4802;51.494;6.770;2022-08-21T16:21:45;0.87;;;0.70;;
9526;SDS011;4802;51.494;6.770;2022-08-21T16:24:16;0.50;;;0.47;;
9526;SDS011;4802;51.494;6.770;2022-08-21T16:27:08;1.80;;;1.03;;
9526;SDS011;4802;51.494;6.770;2022-08-21T16:29:55;0.70;;;0.60;;
9526;SDS011;4802;51.494;6.770;2022-08-21T16:32:53;1.13;;;1.03;;
9526;SDS011;4802;51.494;6.770;2022-08-21T16:35:28;0.77;;;0.70;;